Time;durP1;ratioP1;P1;durP2;ratioP2;P2;SDS_P1;SDS_P2;PMS_P1;PMS_P2;Temp;Humidity;BMP_temperature;BMP_pressure;BME280_temperature;BME280_humidity;BME280_pressure;Samples;Min_cycle;Max_cycle;Signal;HPM_P1;HPM_P2
2022/06/09 06:02:15;;;;;;;8.65;6.57;;;;;;;;;;10627845;27;20104;-82
2022/06/09 06:07:22;;;;;;;11.05;7.55;;;;;;;;;;10624205;27;20511;-83
2022/06/09 06:12:23;;;;;;;13.93;10.40;;;;;;;;;;10624822;28;20111;-83
2022/06/09 06:17:24;;;;;;;10.52;7.13;;;;;;;;;;10606751;27;20089;-83
2022/06/09 06:22:27;;;;;;;15.43;10.65;;;;;;;;;;10619473;28;20026;-85
2022/06/09 06:27:30;;;;;;;16.60;12.77;;;;;;;;;;10618705;27;20039;-86
2022/06/09 06:32:32;;;;;;;12.55;9.07;;;;;;;;;;10663068;27;20031;-84
2022/06/09 06:37:35;;;;;;;12.90;10.02;;;;;;;;;;10660685;27;20043;-84
2022/06/09 06:42:40;;;;;;;11.77;9.20;;;;;;;;;;10640914;28;20036;-85
2022/06/09 06:47:44;;;;;;;18.70;13.30;;;;;;;;;;10653489;27;20092;-83
2022/06/09 06:52:46;;;;;;;16.65;12.15;;;;;;;;;;10588825;28;20396;-85
2022/06/09 06:57:50;;;;;;;11.05;8.88;;;;;;;;;;10605531;27;20087;-85
2022/06/09 07:02:53;;;;;;;7.38;5.53;;;;;;;;;;10624500;28;20015;-87
2022/06/09 07:08:04;;;;;;;9.95;8.20;;;;;;;;;;10632604;27;20108;-86
2022/06/09 07:13:05;;;;;;;10.23;5.82;;;;;;;;;;10629972;27;20024;-86
2022/06/09 07:18:06;;;;;;;8.07;5.38;;;;;;;;;;10599798;28;20027;-86
2022/06/09 07:23:08;;;;;;;10.25;6.45;;;;;;;;;;10596428;28;20056;-84
2022/06/09 07:28:13;;;;;;;8.93;6.25;;;;;;;;;;10593765;28;20044;-85
2022/06/09 07:33:17;;;;;;;8.88;6.40;;;;;;;;;;10593121;28;20019;-83
2022/06/09 07:38:19;;;;;;;9.45;6.78;;;;;;;;;;10577319;28;20027;-84
2022/06/09 07:43:20;;;;;;;10.30;7.43;;;;;;;;;;10594734;28;20028;-84
2022/06/09 07:48:21;;;;;;;8.02;6.72;;;;;;;;;;10590673;28;20032;-85
2022/06/09 07:53:23;;;;;;;8.85;6.63;;;;;;;;;;10596566;28;20024;-84
2022/06/09 07:58:24;;;;;;;10.27;6.47;;;;;;;;;;10600044;27;20092;-83
2022/06/09 08:03:27;;;;;;;9.32;7.22;;;;;;;;;;10601036;28;20047;-83
2022/06/09 08:08:29;;;;;;;11.02;7.38;;;;;;;;;;10598765;28;20035;-84
2022/06/09 08:13:32;;;;;;;11.55;7.53;;;;;;;;;;10595942;28;20079;-84
2022/06/09 08:18:33;;;;;;;8.85;7.13;;;;;;;;;;10596920;28;20114;-83
2022/06/09 08:23:34;;;;;;;10.95;7.78;;;;;;;;;;10595815;28;20094;-82
2022/06/09 08:28:35;;;;;;;10.85;6.78;;;;;;;;;;10596635;28;20606;-82
2022/06/09 08:33:36;;;;;;;9.55;5.60;;;;;;;;;;10597362;28;20046;-81
2022/06/09 08:38:37;;;;;;;9.57;6.20;;;;;;;;;;10595219;28;20365;-82
2022/06/09 08:43:47;;;;;;;8.70;6.72;;;;;;;;;;10596633;28;20015;-81
2022/06/09 08:48:50;;;;;;;11.27;7.03;;;;;;;;;;10595850;28;20076;-83
2022/06/09 08:53:58;;;;;;;10.35;6.78;;;;;;;;;;10597701;28;20020;-83
2022/06/09 08:59:06;;;;;;;13.55;6.45;;;;;;;;;;10598160;28;20032;-83
2022/06/09 09:04:17;;;;;;;10.20;7.25;;;;;;;;;;10616560;28;20549;-84
2022/06/09 09:09:18;;;;;;;8.75;5.90;;;;;;;;;;10599429;28;20038;-82
2022/06/09 09:14:27;;;;;;;9.00;7.28;;;;;;;;;;10598075;28;20059;-85
2022/06/09 09:19:31;;;;;;;8.15;6.32;;;;;;;;;;10593491;28;20030;-86
2022/06/09 09:24:38;;;;;;;10.00;6.43;;;;;;;;;;10599344;28;20051;-84
2022/06/09 09:29:51;;;;;;;11.05;6.72;;;;;;;;;;10599041;28;20027;-82
2022/06/09 09:34:53;;;;;;;9.98;6.75;;;;;;;;;;10593990;28;20030;-81
2022/06/09 09:39:57;;;;;;;8.27;5.22;;;;;;;;;;10592077;28;20489;-82
2022/06/09 09:45:04;;;;;;;8.15;5.75;;;;;;;;;;10598944;28;20074;-81
2022/06/09 09:50:08;;;;;;;9.10;6.28;;;;;;;;;;10598504;28;20392;-80
2022/06/09 09:55:27;;;;;;;5.63;4.50;;;;;;;;;;10598036;28;20027;-82
2022/06/09 10:00:28;;;;;;;6.78;5.07;;;;;;;;;;10597603;28;20141;-82
2022/06/09 10:11:00;;;;;;;7.63;4.43;;;;;;;;;;10599457;28;20425;-82
2022/06/09 10:16:02;;;;;;;7.65;5.72;;;;;;;;;;10593783;28;20079;-81
2022/06/09 10:21:08;;;;;;;7.95;6.03;;;;;;;;;;10598711;28;20412;-81
2022/06/09 10:26:28;;;;;;;6.75;5.43;;;;;;;;;;10590473;28;20027;-82
2022/06/09 10:31:35;;;;;;;8.43;7.18;;;;;;;;;;10589524;28;20024;-82
2022/06/09 10:36:55;;;;;;;8.73;5.78;;;;;;;;;;10592542;28;20028;-81
2022/06/09 10:42:00;;;;;;;7.88;6.20;;;;;;;;;;10590079;28;20024;-83
2022/06/09 10:58:02;;;;;;;6.00;3.47;;;;;;;;;;10603097;28;20039;-84
2022/06/09 11:03:25;;;;;;;8.38;4.07;;;;;;;;;;10601437;28;20143;-85
2022/06/09 11:08:26;;;;;;;4.80;2.95;;;;;;;;;;10572097;28;20035;-85
2022/06/09 11:13:46;;;;;;;6.55;3.60;;;;;;;;;;10597165;28;20482;-85
2022/06/09 11:19:01;;;;;;;5.60;3.30;;;;;;;;;;10596100;28;20051;-84
2022/06/09 11:24:21;;;;;;;5.28;3.30;;;;;;;;;;10594504;28;20020;-84
2022/06/09 11:29:40;;;;;;;6.28;2.88;;;;;;;;;;10591562;28;20042;-85
2022/06/09 11:34:49;;;;;;;4.97;2.95;;;;;;;;;;10592450;28;20118;-85
2022/06/09 11:40:06;;;;;;;4.03;2.60;;;;;;;;;;10592715;28;20369;-85
2022/06/09 11:45:19;;;;;;;4.57;2.80;;;;;;;;;;10591498;28;20034;-84
2022/06/09 11:50:32;;;;;;;6.85;3.50;;;;;;;;;;10592122;28;20047;-84
2022/06/09 12:00:53;;;;;;;5.05;3.55;;;;;;;;;;10597972;28;20036;-84
2022/06/09 12:06:14;;;;;;;5.70;3.17;;;;;;;;;;10597361;28;20027;-83
2022/06/09 12:11:18;;;;;;;5.18;3.00;;;;;;;;;;10600493;28;20125;-84
2022/06/09 12:16:19;;;;;;;3.28;2.30;;;;;;;;;;10598565;28;20077;-86
2022/06/09 12:21:33;;;;;;;3.28;1.88;;;;;;;;;;10596257;28;20517;-84
2022/06/09 12:26:42;;;;;;;5.22;1.73;;;;;;;;;;10596597;28;20023;-85
2022/06/09 12:32:03;;;;;;;2.13;1.42;;;;;;;;;;10598796;28;20031;-85
2022/06/09 12:37:05;;;;;;;3.03;1.67;;;;;;;;;;10610784;28;20027;-83
2022/06/09 12:42:16;;;;;;;2.55;1.52;;;;;;;;;;10598545;28;20087;-84
2022/06/09 12:47:21;;;;;;;3.17;1.60;;;;;;;;;;10607835;28;20035;-85
2022/06/09 12:52:25;;;;;;;4.03;1.70;;;;;;;;;;10611461;28;20016;-84
2022/06/09 12:57:29;;;;;;;2.47;1.48;;;;;;;;;;10611250;28;20034;-85
2022/06/09 13:08:33;;;;;;;3.67;1.77;;;;;;;;;;10626402;28;20035;-83
2022/06/09 13:13:39;;;;;;;2.85;1.70;;;;;;;;;;10598902;28;20024;-83
2022/06/09 13:18:46;;;;;;;2.78;1.60;;;;;;;;;;10609179;28;20027;-83
2022/06/09 13:23:50;;;;;;;2.38;1.33;;;;;;;;;;10608862;28;20030;-84
2022/06/09 13:28:52;;;;;;;2.08;1.65;;;;;;;;;;10604981;28;20026;-84
2022/06/09 13:34:02;;;;;;;3.17;1.90;;;;;;;;;;10605450;28;20100;-84
2022/06/09 13:39:22;;;;;;;3.15;2.13;;;;;;;;;;10572522;28;20051;-84
2022/06/09 13:44:26;;;;;;;2.08;1.60;;;;;;;;;;10608199;28;20099;-83
2022/06/09 13:49:31;;;;;;;2.38;1.60;;;;;;;;;;10612875;28;20028;-82
2022/06/09 13:54:56;;;;;;;3.20;1.90;;;;;;;;;;10612606;28;20024;-83
2022/06/09 13:59:58;;;;;;;2.10;1.70;;;;;;;;;;10610453;28;20091;-84
2022/06/09 14:05:00;;;;;;;4.50;2.17;;;;;;;;;;10607755;28;20027;-84
2022/06/09 14:10:20;;;;;;;1.88;1.60;;;;;;;;;;10609491;28;20042;-84
2022/06/09 14:15:22;;;;;;;2.67;1.80;;;;;;;;;;10611359;28;20023;-82
2022/06/09 14:20:26;;;;;;;2.38;1.58;;;;;;;;;;10607769;28;20342;-84
2022/06/09 14:25:57;;;;;;;3.97;2.00;;;;;;;;;;10584214;22;20071;-81
2022/06/09 15:05:33;;;;;;;3.40;2.03;;;;;;;;;;10466133;28;20040;-84
2022/06/09 15:11:01;;;;;;;3.55;1.60;;;;;;;;;;10519426;28;20066;-81
2022/06/09 15:16:05;;;;;;;5.93;3.08;;;;;;;;;;10511856;28;20036;-81
2022/06/09 15:21:19;;;;;;;3.92;2.70;;;;;;;;;;10520548;28;20033;-83
2022/06/09 15:26:24;;;;;;;3.33;2.15;;;;;;;;;;10522237;28;20024;-83
2022/06/09 15:31:45;;;;;;;3.17;1.92;;;;;;;;;;10524539;28;20062;-83
2022/06/09 15:36:46;;;;;;;3.72;2.10;;;;;;;;;;10519277;28;20024;-83
2022/06/09 15:41:56;;;;;;;3.45;1.88;;;;;;;;;;10525158;28;20100;-83
2022/06/09 15:47:03;;;;;;;;;;;;;;;;;;10525072;28;20032;-82
2022/06/09 15:52:05;;;;;;;3.97;1.95;;;;;;;;;;10536199;28;19909;-82
2022/06/09 15:57:19;;;;;;;3.83;1.92;;;;;;;;;;10523919;28;20036;-82
2022/06/09 16:02:20;;;;;;;6.97;2.40;;;;;;;;;;10512895;28;20036;-83
2022/06/09 16:07:24;;;;;;;4.13;2.08;;;;;;;;;;10516726;28;20055;-83
2022/06/09 16:13:04;;;;;;;3.53;2.00;;;;;;;;;;10512153;28;20039;-84
2022/06/09 16:18:05;;;;;;;6.65;3.70;;;;;;;;;;10529571;28;20025;-81
2022/06/09 16:23:43;;;;;;;6.13;2.80;;;;;;;;;;10508338;28;20028;-83
2022/06/09 16:40:56;;;;;;;7.07;3.00;;;;;;;;;;10539758;28;20032;-83
2022/06/09 17:03:29;;;;;;;6.60;2.75;;;;;;;;;;10439322;28;20025;-83
2022/06/09 17:32:09;;;;;;;5.80;2.70;;;;;;;;;;10490807;28;20040;-83
2022/06/09 18:00:45;;;;;;;5.70;2.50;;;;;;;;;;10367724;28;20031;-82
2022/06/09 18:17:40;;;;;;;4.75;2.15;;;;;;;;;;10516562;28;20025;-83
2022/06/09 18:23:26;;;;;;;5.15;2.22;;;;;;;;;;10492383;28;20096;-82
